首页
METAR-TAF:

METAR-TAF

机场 :

黑潭, 英格兰

纬度: 53-46N, 经度: 003-02W, 海拔: 10米

当前天气观测

该预报发布于44分钟前的06:50 UTC
风速29节,风向西转西南
温度 7°C
湿度 81%
气压 996 hPa
能見度: 7000
少量云层高于2100英尺
多云层高于2800英尺
附近有阵雨

METAR: EGNH 170650Z 25029KT 7000 VCSH FEW021 BKN028 07/04 Q0996

时间: 07:34 (07:34 UTC)

预报

该预报发布于32分钟前的07:02 UTC
预报有效从17日的 07点(UTC)到 17日的 15点(UTC)
风速20节,风向西南,有时为30节阵风
能见度10公里或以上
散云层高于3000英尺
短暂存在
从 17日的 07点(UTC)到 17日的 15点(UTC)
能見度: 7000
阵雨
短暂存在
从 17日的 07点(UTC)到 17日的 09点(UTC)
风速20节,风向西转西南,有时为40节阵风
成为
从 17日的 09点(UTC)到 17日的 11点(UTC)
风速20节,风向西,有时为30节阵风

TAF: EGNH 170702Z 1707/1715 23020G30KT 9999 SCT030 TEMPO 1707/1715 7000 SHRA TEMPO 1707/1709 24020G40KT BECMG 1709/1711 26020G30KT

超过4000个机场的气象观测和天气预报(METAR&TAF报告)。

可查询的气象台以黄色和红色小点在地图上表示。

将鼠标移到小点上方,可查看气象台名称。

然后点击查看天气观测和预报。

如需切换地图:点击带黑十字的绿色按钮放大地图;点击带横线的绿色按钮缩小地图;或者点击绿色箭头查看邻近地区的地图。


METAR-TAF: